createdAt,value
2023-09-27T00:39:15.042Z,5.72
2023-09-27T00:41:44.941Z,5.88
2023-09-27T00:44:14.769Z,5.40
2023-09-27T00:46:44.692Z,5.72
2023-09-27T00:49:15.225Z,5.20
2023-09-27T00:51:45.352Z,5.30
2023-09-27T00:54:17.805Z,4.82
2023-09-27T00:56:48.944Z,5.53
2023-09-27T00:59:19.617Z,5.68
2023-09-27T01:01:50.058Z,5.80
2023-09-27T01:04:21.094Z,5.57
2023-09-27T01:06:50.899Z,5.82
2023-09-27T01:09:23.243Z,5.30
2023-09-27T01:11:53.118Z,5.03
2023-09-27T01:14:23.071Z,6.55
2023-09-27T01:16:52.931Z,5.13
2023-09-27T01:19:22.781Z,5.53
2023-09-27T01:21:52.618Z,5.13
2023-09-27T01:24:27.639Z,4.57
2023-09-27T01:26:58.199Z,4.20
2023-09-27T01:29:28.040Z,4.53
2023-09-27T01:31:58.205Z,4.53
2023-09-27T01:34:28.159Z,4.57
2023-09-27T01:36:59.006Z,4.68
2023-09-27T01:39:32.130Z,5.57
2023-09-27T01:42:01.883Z,5.53
2023-09-27T01:44:31.734Z,4.95
2023-09-27T01:47:01.637Z,5.38
2023-09-27T01:49:32.652Z,4.60
2023-09-27T01:52:02.403Z,3.97
2023-09-27T01:54:34.849Z,4.65
2023-09-27T01:57:04.670Z,4.05
2023-09-27T01:59:34.478Z,4.18
2023-09-27T02:02:04.365Z,4.00
2023-09-27T02:04:34.308Z,4.22
2023-09-27T02:07:04.703Z,4.30
2023-09-27T02:09:37.173Z,4.53
2023-09-27T02:12:07.402Z,4.38
2023-09-27T02:14:37.219Z,4.28
2023-09-27T02:17:09.207Z,4.55
2023-09-27T02:19:38.999Z,4.72
2023-09-27T02:22:09.544Z,4.22
2023-09-27T02:24:42.798Z,4.00
2023-09-27T02:27:12.585Z,3.70
2023-09-27T02:29:42.385Z,4.00
2023-09-27T02:32:12.919Z,4.20
2023-09-27T02:34:43.680Z,4.20
2023-09-27T02:37:16.851Z,3.95
2023-09-27T02:39:49.270Z,3.85
2023-09-27T02:42:19.216Z,3.30
2023-09-27T02:44:49.280Z,4.15
2023-09-27T02:47:19.112Z,4.93
2023-09-27T02:49:49.578Z,4.47
2023-09-27T02:52:19.492Z,5.13
2023-09-27T02:54:52.140Z,4.90
2023-09-27T02:57:21.941Z,4.40
2023-09-27T02:59:51.934Z,4.57
2023-09-27T03:02:21.931Z,3.90
2023-09-27T03:04:52.272Z,3.60
2023-09-27T03:07:22.171Z,4.75
2023-09-27T03:09:54.591Z,4.53
2023-09-27T03:12:25.464Z,4.40
2023-09-27T03:14:55.369Z,3.70
2023-09-27T03:17:25.310Z,5.10
2023-09-27T03:19:56.022Z,4.80
2023-09-27T03:22:26.503Z,4.00
2023-09-27T03:24:58.958Z,4.32
2023-09-27T03:27:28.786Z,4.00
2023-09-27T03:29:58.651Z,4.13
2023-09-27T03:32:28.672Z,3.88
2023-09-27T03:35:00.590Z,6.28
2023-09-27T03:37:31.703Z,6.47
2023-09-27T03:40:08.884Z,6.13
2023-09-27T03:42:38.794Z,5.22
2023-09-27T03:45:09.931Z,5.82
2023-09-27T03:47:41.398Z,5.80
2023-09-27T03:50:13.737Z,5.40
2023-09-27T03:52:44.361Z,5.90
2023-09-27T03:55:17.143Z,5.22
2023-09-27T03:57:47.010Z,6.03
2023-09-27T04:00:18.438Z,5.10
2023-09-27T04:02:50.985Z,4.60
2023-09-27T04:05:24.452Z,4.28
2023-09-27T04:07:54.361Z,4.15
2023-09-27T04:10:28.646Z,3.90
2023-09-27T04:12:58.606Z,3.42
2023-09-27T04:15:28.410Z,4.25
2023-09-27T04:17:58.349Z,4.40
2023-09-27T04:20:28.530Z,4.05
2023-09-27T04:22:58.382Z,3.67
2023-09-27T04:25:30.838Z,2.78
2023-09-27T04:28:00.660Z,3.42
2023-09-27T04:30:30.693Z,4.00
2023-09-27T04:33:01.551Z,3.75
2023-09-27T04:35:31.395Z,4.30
2023-09-27T04:38:01.256Z,4.15
2023-09-27T04:40:33.929Z,4.82
2023-09-27T04:43:03.733Z,4.38
2023-09-27T04:45:35.290Z,5.13
2023-09-27T04:48:05.973Z,5.10
2023-09-27T04:50:36.221Z,5.32
2023-09-27T04:53:06.584Z,4.78
2023-09-27T04:55:39.259Z,3.63
2023-09-27T04:58:09.349Z,3.92
2023-09-27T05:00:39.092Z,3.42
2023-09-27T05:03:09.132Z,3.58
2023-09-27T05:05:39.073Z,3.53
2023-09-27T05:08:09.327Z,3.58
2023-09-27T05:10:41.692Z,2.55
2023-09-27T05:13:11.508Z,3.38
2023-09-27T05:15:41.378Z,3.40
2023-09-27T05:18:11.978Z,4.30
2023-09-27T05:20:41.871Z,4.30
2023-09-27T05:23:11.774Z,4.18
2023-09-27T05:25:45.433Z,4.45
2023-09-27T05:28:15.299Z,4.32
2023-09-27T05:30:45.731Z,5.90
2023-09-27T05:33:15.724Z,6.00
2023-09-27T05:35:45.511Z,5.63
2023-09-27T05:38:15.446Z,4.72
2023-09-27T05:40:47.959Z,5.80
2023-09-27T05:43:17.795Z,7.80
2023-09-27T05:45:47.572Z,7.47
2023-09-27T05:48:17.612Z,7.38
2023-09-27T05:50:51.442Z,6.30
2023-09-27T05:53:21.304Z,5.00
2023-09-27T05:55:54.375Z,6.30
2023-09-27T05:58:24.130Z,5.10
2023-09-27T06:00:56.083Z,6.32
2023-09-27T06:03:27.290Z,6.45
2023-09-27T06:05:57.923Z,6.93
2023-09-27T06:11:00.871Z,7.82
2023-09-27T06:13:30.822Z,7.32
2023-09-27T06:16:02.227Z,5.95
2023-09-27T06:18:33.192Z,5.38
2023-09-27T06:21:05.853Z,6.53
2023-09-27T06:23:36.741Z,6.82
2023-09-27T06:26:10.895Z,7.43
2023-09-27T06:28:41.253Z,9.90
2023-09-27T06:33:42.571Z,9.32
2023-09-27T06:36:13.283Z,9.82
2023-09-27T06:38:45.231Z,10.25
2023-09-27T06:41:19.159Z,10.35
2023-09-27T06:43:49.361Z,11.32
2023-09-27T06:46:20.470Z,11.95
2023-09-27T06:48:50.579Z,9.93
2023-09-27T06:51:21.067Z,8.60
2023-09-27T06:53:51.066Z,9.75
2023-09-27T06:56:23.700Z,10.57
2023-09-27T06:58:54.123Z,10.15
2023-09-27T07:03:56.801Z,11.55
2023-09-27T07:06:26.938Z,10.45
2023-09-27T07:08:59.491Z,12.32
2023-09-27T07:11:32.080Z,12.02
2023-09-27T07:14:02.159Z,12.32
2023-09-27T07:16:34.397Z,13.15
2023-09-27T07:19:07.058Z,13.07
2023-09-27T07:21:38.356Z,10.60
2023-09-27T07:24:11.151Z,10.80
2023-09-27T07:26:47.097Z,12.52
2023-09-27T07:29:18.437Z,14.82
2023-09-27T07:31:48.425Z,14.68
2023-09-27T07:34:18.513Z,16.33
2023-09-27T07:36:48.482Z,15.52
2023-09-27T07:39:19.080Z,15.20
2023-09-27T07:41:51.680Z,13.48
2023-09-27T07:44:22.585Z,14.80
2023-09-27T07:46:52.975Z,14.70
2023-09-27T07:49:24.391Z,15.27
2023-09-27T07:51:54.369Z,13.07
2023-09-27T07:54:25.442Z,12.55
2023-09-27T07:56:58.795Z,12.23
2023-09-27T07:59:29.779Z,12.77
2023-09-27T08:02:00.078Z,13.60
2023-09-27T08:04:30.246Z,13.13
2023-09-27T08:07:00.340Z,12.43
2023-09-27T08:09:41.138Z,13.18
2023-09-27T08:12:14.628Z,12.23
2023-09-27T08:14:44.775Z,11.27
2023-09-27T08:17:15.005Z,11.02
2023-09-27T08:19:44.985Z,11.85
2023-09-27T08:22:15.007Z,10.77
2023-09-27T08:24:45.007Z,10.43
2023-09-27T08:27:17.696Z,10.30
2023-09-27T08:29:48.087Z,11.77
2023-09-27T08:34:50.312Z,11.07
2023-09-27T08:37:20.427Z,11.75
2023-09-27T08:39:50.895Z,10.65
2023-09-27T08:42:24.735Z,10.63
2023-09-27T08:44:56.337Z,9.95
2023-09-27T08:47:26.937Z,9.70
2023-09-27T08:49:59.038Z,11.27
2023-09-27T08:52:29.862Z,10.18
2023-09-27T08:54:59.848Z,8.88
2023-09-27T08:57:32.745Z,11.27
2023-09-27T09:00:02.770Z,10.00
2023-09-27T09:02:33.068Z,10.15
2023-09-27T09:05:05.775Z,8.80
2023-09-27T09:07:35.831Z,9.02
2023-09-27T09:10:05.745Z,9.15
2023-09-27T09:12:39.408Z,8.30
2023-09-27T09:15:15.809Z,8.07
2023-09-27T09:20:24.309Z,6.45
2023-09-27T09:22:56.154Z,6.68
2023-09-27T09:25:26.680Z,5.60
2023-09-27T09:28:10.216Z,6.93
2023-09-27T09:30:41.300Z,6.68
2023-09-27T09:33:14.168Z,7.35
2023-09-27T09:35:44.231Z,6.40
2023-09-27T09:38:14.574Z,8.30
2023-09-27T09:40:56.462Z,8.18
2023-09-27T09:43:37.954Z,8.00
2023-09-27T09:46:12.149Z,6.63
2023-09-27T09:48:43.333Z,7.18
2023-09-27T09:51:13.520Z,6.85
2023-09-27T09:53:44.461Z,7.43
2023-09-27T09:58:59.041Z,6.82
2023-09-27T10:01:30.440Z,6.82
2023-09-27T10:04:05.749Z,5.88
2023-09-27T10:06:48.244Z,6.85
2023-09-27T10:09:19.350Z,6.40
2023-09-27T10:11:49.865Z,5.90
2023-09-27T10:14:23.101Z,5.93
2023-09-27T10:16:53.007Z,6.25
2023-09-27T10:19:30.251Z,6.05
2023-09-27T10:22:09.380Z,5.55
2023-09-27T10:24:40.650Z,6.03
2023-09-27T10:27:10.473Z,5.28
2023-09-27T10:30:02.064Z,6.50
2023-09-27T10:32:32.449Z,7.13
2023-09-27T10:35:19.771Z,6.32
2023-09-27T10:38:07.883Z,5.88
2023-09-27T10:40:45.112Z,6.03
2023-09-27T10:43:15.325Z,5.57
2023-09-27T10:45:58.840Z,6.15
2023-09-27T10:48:28.714Z,6.60
2023-09-27T10:50:58.666Z,7.03
2023-09-27T10:53:28.842Z,5.65
2023-09-27T10:55:59.092Z,6.43
2023-09-27T11:01:05.178Z,6.22
2023-09-27T11:03:35.624Z,6.85
2023-09-27T11:06:12.820Z,6.80
2023-09-27T11:08:43.950Z,5.97
2023-09-27T11:11:14.716Z,6.65
2023-09-27T11:13:45.651Z,6.28
2023-09-27T11:16:19.721Z,5.90
2023-09-27T11:18:50.594Z,5.68
2023-09-27T11:21:20.602Z,6.10
2023-09-27T11:23:57.819Z,6.35
2023-09-27T11:26:28.798Z,6.55
2023-09-27T11:29:02.584Z,5.50
2023-09-27T11:31:36.771Z,6.05
2023-09-27T11:34:16.810Z,5.85
2023-09-27T11:36:47.794Z,5.75
2023-09-27T11:39:18.355Z,6.07
2023-09-27T11:41:48.794Z,5.47
2023-09-27T11:44:19.954Z,5.82
2023-09-27T11:46:53.348Z,6.53
2023-09-27T11:49:23.333Z,6.15
2023-09-27T11:51:53.228Z,5.70
2023-09-27T11:54:23.082Z,4.70
2023-09-27T11:56:54.677Z,5.28
2023-09-27T11:59:25.103Z,5.82
2023-09-27T12:02:00.287Z,4.78
2023-09-27T12:04:32.082Z,4.90
2023-09-27T12:07:02.373Z,5.43
2023-09-27T12:09:32.542Z,4.93
2023-09-27T12:12:02.325Z,4.30
2023-09-27T12:14:32.113Z,4.57
2023-09-27T12:17:04.736Z,4.15
2023-09-27T12:19:35.879Z,4.93
2023-09-27T12:22:05.970Z,4.28
2023-09-27T12:24:35.822Z,4.82
2023-09-27T12:27:05.692Z,4.10
2023-09-27T12:29:35.499Z,4.82
2023-09-27T12:32:08.053Z,4.72
2023-09-27T12:34:37.842Z,5.80
2023-09-27T12:37:07.671Z,4.97
2023-09-27T12:39:38.885Z,4.07
